Accueil
METAR-TAF:

METAR-TAF

Aéroports :

Stuttgart, Allemagne

Aéroport de Stuttgart

latitude: 48-41N, longitude: 009-13E, altitude: 396 m

Observation

Le bulletin a été fait il y a 17 minutes, à 03:20 UTC
Vent 1 kt de direction variable
Température 7°C
Humidité 93%
Pression 1015 hPa
Visibilité 10 km ou plus
pas de nuages en-dessous de 1500 mètres et pas de cumulonimbus.

METAR: EDDS 190320Z VRB01KT CAVOK 07/06 Q1015

Heure: 05:37 (03:37 UTC)

Prévision

Le bulletin a été fait il y a 4 heures et 37 minutes, à 23:00 UTC
Prévision valable du 19 à 00 UTC au 19 à 24 UTC
Vent 3 kt de direction variable
Visibilité 10 km ou plus
pas de nuages en-dessous de 1500 mètres et pas de cumulonimbus.
Probabilité 30% :
Temporairement
du 19 à 04 UTC au 19 à 08 UTC
Visibilité: 2000 m
bancs de brouillard

TAF: EDDS 182300Z 1900/1924 VRB03KT CAVOK PROB30 TEMPO 1904/1908 2000 BCFG

Observations et prévisions météorologiques de plus de 4000 aéroports (messages METAR et TAF).

Les stations disponibles sont représentées par des disques jaunes et rouges sur la carte.

Passer la souris dessus pour voir le nom de la station.

Cliquer dessus pour voir les observations et prévisions météorologiques.

Pour changer de carte: cliquez sur les boutons verts avec une croix noire pour zoomer, sur le bouton vert avec un tiret pour effectuer un zoom arrière, ou sur les flèches vertes pour les cartes adjacentes.


METAR-TAF: